createdAt,value
2018-07-08T00:00:42.058Z,74.20
2018-07-08T00:05:45.115Z,74.90
2018-07-08T00:10:49.295Z,75.10
2018-07-08T00:15:52.298Z,75.50
2018-07-08T00:20:56.005Z,75.60
2018-07-08T00:25:59.019Z,75.70
2018-07-08T00:31:02.012Z,76.10
2018-07-08T00:36:05.139Z,76.50
2018-07-08T00:41:08.137Z,77.20
2018-07-08T00:46:11.167Z,77.90
2018-07-08T00:51:14.219Z,78.00
2018-07-08T00:56:17.224Z,78.60
2018-07-08T01:01:20.271Z,79.60
2018-07-08T01:06:23.287Z,79.90
2018-07-08T01:11:26.293Z,80.20
2018-07-08T01:16:29.299Z,80.10
2018-07-08T01:21:32.309Z,80.30
2018-07-08T01:26:35.735Z,80.70
2018-07-08T01:31:38.744Z,80.60
2018-07-08T01:36:41.734Z,81.00
2018-07-08T01:41:44.790Z,80.80
2018-07-08T01:46:47.856Z,81.30
2018-07-08T01:51:50.856Z,81.90
2018-07-08T01:56:53.860Z,83.00
2018-07-08T02:01:56.856Z,83.40
2018-07-08T02:07:00.072Z,84.10
2018-07-08T02:12:03.091Z,84.60
2018-07-08T02:17:06.096Z,85.10
2018-07-08T02:22:09.106Z,85.60
2018-07-08T02:27:12.174Z,86.20
2018-07-08T02:32:15.171Z,86.60
2018-07-08T02:37:18.183Z,87.10
2018-07-08T02:42:21.191Z,87.50
2018-07-08T02:47:24.515Z,87.30
2018-07-08T02:52:27.603Z,87.40
2018-07-08T02:57:30.602Z,87.20
2018-07-08T03:02:33.608Z,87.60
2018-07-08T03:07:36.610Z,87.40
2018-07-08T03:12:39.616Z,87.30
2018-07-08T03:17:42.644Z,87.30
2018-07-08T03:22:45.717Z,88.20
2018-07-08T03:27:48.734Z,88.80
2018-07-08T03:32:51.736Z,89.60
2018-07-08T03:37:54.744Z,89.50
2018-07-08T03:42:57.766Z,89.20
2018-07-08T03:48:01.042Z,89.10
2018-07-08T03:53:04.058Z,88.90
2018-07-08T03:58:07.143Z,89.50
2018-07-08T04:03:10.155Z,89.60
2018-07-08T04:08:13.191Z,89.60
2018-07-08T04:13:16.194Z,89.80
2018-07-08T04:18:19.182Z,90.00
2018-07-08T04:23:22.174Z,90.10
2018-07-08T04:28:25.193Z,90.10
2018-07-08T04:33:28.264Z,89.60
2018-07-08T04:38:31.268Z,90.00
2018-07-08T04:43:34.281Z,90.10
2018-07-08T04:48:37.294Z,90.10
2018-07-08T04:53:40.388Z,89.60
2018-07-08T04:58:43.402Z,89.30
2018-07-08T05:03:46.586Z,89.10
2018-07-08T05:08:49.694Z,89.10
2018-07-08T05:13:52.695Z,88.60
2018-07-08T05:18:55.678Z,88.60
2018-07-08T05:23:58.698Z,89.00
2018-07-08T05:29:01.691Z,89.70
2018-07-08T05:34:04.935Z,90.00
2018-07-08T05:39:08.006Z,90.00
2018-07-08T05:44:11.026Z,90.00
2018-07-08T05:49:14.122Z,89.60
2018-07-08T05:54:17.134Z,89.40
2018-07-08T05:59:20.231Z,89.00
2018-07-08T06:04:23.396Z,88.20
2018-07-08T06:09:26.481Z,88.60
2018-07-08T06:14:29.877Z,89.30
2018-07-08T06:19:33.335Z,89.10
2018-07-08T06:24:36.503Z,90.10
2018-07-08T06:29:39.933Z,89.80
2018-07-08T06:34:43.274Z,89.90
2018-07-08T06:39:46.556Z,90.20
2018-07-08T06:44:49.629Z,89.90
2018-07-08T06:49:52.634Z,89.20
2018-07-08T06:54:55.715Z,90.10
2018-07-08T06:59:58.739Z,90.50
2018-07-08T07:05:01.808Z,91.00
2018-07-08T07:10:04.820Z,90.80
2018-07-08T07:15:07.924Z,90.80
2018-07-08T07:20:10.959Z,90.90
2018-07-08T07:25:13.949Z,90.80
2018-07-08T07:30:16.991Z,90.90
2018-07-08T07:35:20.005Z,90.20
2018-07-08T07:40:23.050Z,90.70
2018-07-08T07:45:26.108Z,90.70
2018-07-08T07:50:29.110Z,90.70
2018-07-08T07:55:32.122Z,90.30
2018-07-08T08:00:35.115Z,90.50
2018-07-08T08:05:38.102Z,90.00
2018-07-08T08:10:41.117Z,90.30
2018-07-08T08:15:44.110Z,91.00
2018-07-08T08:20:47.106Z,90.60
2018-07-08T08:25:50.106Z,90.70
2018-07-08T08:30:53.220Z,91.00
2018-07-08T08:35:56.242Z,90.60
2018-07-08T08:40:59.278Z,90.50
2018-07-08T08:46:02.367Z,91.00
2018-07-08T08:51:05.589Z,90.40
2018-07-08T08:56:10.660Z,89.20
2018-07-08T09:01:13.660Z,90.00
2018-07-08T09:06:16.687Z,90.00
2018-07-08T09:11:19.714Z,90.30
2018-07-08T09:16:22.743Z,90.40
2018-07-08T09:21:25.742Z,90.10
2018-07-08T09:26:28.830Z,89.30
2018-07-08T09:31:31.981Z,89.40
2018-07-08T09:36:35.283Z,87.00
2018-07-08T09:41:38.687Z,87.30
2018-07-08T09:46:42.842Z,84.50
2018-07-08T09:51:46.315Z,81.10
2018-07-08T09:56:49.323Z,81.00
2018-07-08T10:01:52.329Z,81.50
2018-07-08T10:06:55.650Z,83.10
2018-07-08T10:11:58.762Z,85.50
2018-07-08T10:17:01.780Z,83.80
2018-07-08T10:22:04.807Z,81.30
2018-07-08T10:27:26.160Z,80.70
2018-07-08T10:32:29.153Z,81.70
2018-07-08T10:37:32.204Z,82.30
2018-07-08T10:42:35.339Z,83.00
2018-07-08T10:47:38.337Z,82.60
2018-07-08T10:52:41.366Z,81.70
2018-07-08T10:57:44.399Z,83.00
2018-07-08T11:02:47.398Z,82.20
2018-07-08T11:07:50.429Z,82.30
2018-07-08T11:12:53.435Z,81.50
2018-07-08T11:17:56.447Z,81.50
2018-07-08T11:22:59.438Z,81.90
2018-07-08T11:28:02.476Z,81.70
2018-07-08T11:33:05.851Z,81.00
2018-07-08T11:38:08.859Z,81.20
2018-07-08T11:43:11.878Z,79.90
2018-07-08T11:48:14.903Z,80.10
2018-07-08T11:58:20.880Z,81.30
2018-07-08T12:03:23.968Z,81.50
2018-07-08T12:08:26.992Z,82.00
2018-07-08T12:13:29.988Z,82.20
2018-07-08T12:18:33.035Z,83.00
2018-07-08T12:23:39.048Z,82.40
2018-07-08T12:28:42.119Z,82.40
2018-07-08T12:33:45.141Z,82.20
2018-07-08T12:38:48.135Z,81.30
2018-07-08T12:43:51.246Z,81.60
2018-07-08T12:48:54.250Z,82.00
2018-07-08T12:53:57.346Z,81.20
2018-07-08T12:59:00.403Z,81.40
2018-07-08T13:04:03.526Z,81.20
2018-07-08T13:14:09.514Z,78.90
2018-07-08T13:19:12.610Z,74.90
2018-07-08T13:24:15.678Z,73.30
2018-07-08T13:29:18.719Z,72.40
2018-07-08T13:34:21.810Z,70.00
2018-07-08T13:39:24.794Z,67.50
2018-07-08T13:44:27.912Z,67.00
2018-07-08T13:49:30.918Z,64.70
2018-07-08T13:54:34.012Z,63.50
2018-07-08T13:59:37.133Z,64.50
2018-07-08T14:04:40.203Z,64.10
2018-07-08T14:09:43.333Z,63.40
2018-07-08T14:14:46.576Z,59.60
2018-07-08T14:19:49.531Z,58.60
2018-07-08T14:24:52.548Z,58.50
2018-07-08T14:29:55.600Z,58.70
2018-07-08T14:34:58.602Z,57.70
2018-07-08T14:40:01.613Z,57.60
2018-07-08T14:45:04.629Z,56.80
2018-07-08T14:50:07.645Z,57.10
2018-07-08T14:55:10.622Z,56.70
2018-07-08T15:00:13.653Z,56.00
2018-07-08T15:05:16.654Z,55.00
2018-07-08T15:10:19.666Z,55.50
2018-07-08T15:15:22.775Z,54.90
2018-07-08T15:20:25.867Z,53.90
2018-07-08T15:25:28.886Z,53.80
2018-07-08T15:30:32.080Z,52.30
2018-07-08T15:35:35.141Z,52.20
2018-07-08T15:40:38.283Z,54.50
2018-07-08T15:45:41.270Z,52.20
2018-07-08T15:50:44.290Z,51.40
2018-07-08T15:55:47.315Z,51.10
2018-07-08T16:00:50.302Z,50.70
2018-07-08T16:05:53.408Z,51.10
2018-07-08T16:10:56.378Z,51.60
2018-07-08T16:15:59.396Z,51.80
2018-07-08T16:21:02.739Z,51.60
2018-07-08T16:26:05.734Z,51.10
2018-07-08T16:31:08.946Z,51.10
2018-07-08T16:36:12.020Z,51.10
2018-07-08T16:41:15.024Z,51.50
2018-07-08T16:46:19.261Z,50.80
2018-07-08T16:51:22.295Z,51.00
2018-07-08T16:56:25.318Z,50.70
2018-07-08T17:01:29.405Z,50.30
2018-07-08T17:06:32.926Z,51.60
2018-07-08T17:11:36.007Z,51.40
2018-07-08T17:16:39.043Z,50.60
2018-07-08T17:21:42.597Z,50.30
2018-07-08T17:31:49.912Z,50.70
2018-07-08T17:36:53.576Z,50.70
2018-07-08T17:41:56.598Z,51.00
2018-07-08T17:46:59.607Z,51.00
2018-07-08T17:52:02.614Z,51.30
2018-07-08T17:57:05.630Z,51.30
2018-07-08T18:02:08.639Z,51.10
2018-07-08T18:07:11.664Z,51.20
2018-07-08T18:12:14.668Z,51.30
2018-07-08T18:17:17.690Z,51.70
2018-07-08T18:22:20.926Z,52.00
2018-07-08T18:27:23.939Z,52.30
2018-07-08T18:32:27.022Z,52.70
2018-07-08T18:37:30.135Z,52.70
2018-07-08T18:42:33.129Z,52.90
2018-07-08T18:47:36.129Z,53.10
2018-07-08T18:52:39.364Z,53.00
2018-07-08T18:57:42.462Z,53.50
2018-07-08T19:02:45.555Z,53.40
2018-07-08T19:07:48.560Z,53.80
2018-07-08T19:12:51.568Z,53.90
2018-07-08T19:17:54.646Z,54.10
2018-07-08T19:28:00.462Z,54.60
2018-07-08T19:33:03.452Z,54.30
2018-07-08T19:38:06.471Z,54.60
2018-07-08T19:43:09.468Z,54.30
2018-07-08T19:48:12.502Z,54.50
2018-07-08T19:53:15.487Z,54.20
2018-07-08T19:58:18.471Z,54.30
2018-07-08T20:03:21.540Z,54.50
2018-07-08T20:08:24.550Z,54.60
2018-07-08T20:13:27.592Z,55.90
2018-07-08T20:18:31.076Z,55.70
2018-07-08T20:23:34.207Z,55.30
2018-07-08T20:28:37.228Z,55.60
2018-07-08T20:33:40.225Z,55.80
2018-07-08T20:38:43.236Z,55.90
2018-07-08T20:43:46.218Z,56.50
2018-07-08T20:48:49.226Z,56.10
2018-07-08T20:53:52.217Z,56.50
2018-07-08T20:58:55.222Z,56.60
2018-07-08T21:03:58.327Z,56.80
2018-07-08T21:09:02.148Z,56.80
2018-07-08T21:14:05.255Z,57.30
2018-07-08T21:19:08.259Z,57.60
2018-07-08T21:24:11.276Z,57.80
2018-07-08T21:29:14.287Z,57.80
2018-07-08T21:34:17.384Z,58.20
2018-07-08T21:39:20.408Z,58.30
2018-07-08T21:44:23.505Z,58.40
2018-07-08T21:49:26.722Z,58.60
2018-07-08T21:54:29.719Z,58.70
2018-07-08T21:59:32.795Z,58.70
2018-07-08T22:04:35.963Z,59.10
2018-07-08T22:09:38.957Z,59.00
2018-07-08T22:14:42.012Z,59.30
2018-07-08T22:19:45.028Z,59.20
2018-07-08T22:24:48.115Z,59.00
2018-07-08T22:29:51.102Z,58.80
2018-07-08T22:34:54.126Z,58.70
2018-07-08T22:39:57.116Z,58.60
2018-07-08T22:45:00.226Z,58.60
2018-07-08T22:50:03.326Z,58.60
2018-07-08T22:55:06.436Z,59.10
2018-07-08T23:00:21.117Z,59.10
2018-07-08T23:05:24.098Z,59.40
2018-07-08T23:10:27.099Z,59.10
2018-07-08T23:15:30.117Z,59.10
2018-07-08T23:20:33.206Z,59.20
2018-07-08T23:25:36.222Z,59.40
2018-07-08T23:30:39.223Z,59.50
2018-07-08T23:35:42.339Z,59.80
2018-07-08T23:40:45.323Z,60.00
2018-07-08T23:45:48.328Z,60.50
2018-07-08T23:50:51.442Z,60.90
2018-07-08T23:55:54.551Z,61.20
